createdAt,value
2022-08-20T00:01:01.798Z,17.33
2022-08-20T00:03:32.228Z,16.77
2022-08-20T00:06:02.856Z,17.52
2022-08-20T00:08:31.564Z,16.17
2022-08-20T00:11:00.402Z,16.23
2022-08-20T00:13:31.031Z,16.10
2022-08-20T00:16:00.203Z,16.75
2022-08-20T00:18:28.721Z,17.88
2022-08-20T00:20:57.694Z,17.63
2022-08-20T00:23:27.571Z,17.25
2022-08-20T00:25:56.093Z,17.25
2022-08-20T00:28:24.515Z,17.42
2022-08-20T00:30:52.874Z,16.83
2022-08-20T00:33:22.912Z,16.88
2022-08-20T00:35:53.175Z,16.55
2022-08-20T00:38:21.811Z,16.48
2022-08-20T00:40:52.975Z,18.35
2022-08-20T00:43:29.622Z,17.08
2022-08-20T00:45:58.218Z,17.15
2022-08-20T00:48:27.881Z,15.88
2022-08-20T00:50:58.812Z,16.45
2022-08-20T00:53:29.275Z,17.00
2022-08-20T00:55:59.192Z,16.95
2022-08-20T00:58:28.921Z,16.33
2022-08-20T01:00:57.545Z,17.13
2022-08-20T01:03:26.039Z,16.83
2022-08-20T01:05:54.732Z,14.88
2022-08-20T01:08:26.636Z,15.70
2022-08-20T01:11:07.301Z,15.02
2022-08-20T01:13:38.402Z,14.75
2022-08-20T01:16:10.805Z,14.23
2022-08-20T01:18:40.496Z,14.07
2022-08-20T01:21:09.340Z,14.45
2022-08-20T01:23:41.356Z,13.50
2022-08-20T01:26:13.127Z,13.85
2022-08-20T01:28:44.658Z,13.18
2022-08-20T01:31:14.458Z,12.77
2022-08-20T01:33:44.212Z,13.70
2022-08-20T01:36:16.327Z,13.82
2022-08-20T01:38:54.168Z,13.25
2022-08-20T01:41:38.443Z,13.50
2022-08-20T01:44:08.622Z,13.18
2022-08-20T01:46:43.754Z,12.30
2022-08-20T01:49:21.066Z,13.00
2022-08-20T01:51:51.841Z,13.05
2022-08-20T01:54:20.580Z,12.52
2022-08-20T01:56:54.577Z,12.40
2022-08-20T01:59:22.935Z,12.70
2022-08-20T02:01:51.933Z,13.35
2022-08-20T02:04:20.388Z,12.57
2022-08-20T02:06:57.166Z,13.02
2022-08-20T02:09:26.242Z,13.45
2022-08-20T02:11:56.546Z,13.60
2022-08-20T02:14:25.545Z,13.45
2022-08-20T02:16:55.308Z,14.70
2022-08-20T02:19:26.017Z,14.55
2022-08-20T02:21:58.130Z,14.88
2022-08-20T02:24:26.540Z,14.93
2022-08-20T02:26:56.542Z,15.90
2022-08-20T02:29:26.164Z,15.15
2022-08-20T02:32:25.141Z,16.65
2022-08-20T02:34:43.660Z,15.85
2022-08-20T02:37:14.596Z,15.68
2022-08-20T02:39:43.006Z,16.00
2022-08-20T02:42:13.330Z,16.98
2022-08-20T02:44:41.888Z,16.77
2022-08-20T02:47:10.314Z,16.27
2022-08-20T02:49:38.792Z,16.17
2022-08-20T02:52:07.224Z,16.50
2022-08-20T02:54:35.976Z,15.68
2022-08-20T02:57:04.716Z,16.35
2022-08-20T02:59:34.497Z,15.65
2022-08-20T03:02:02.941Z,15.23
2022-08-20T03:04:31.562Z,15.07
2022-08-20T03:07:00.061Z,14.50
2022-08-20T03:09:28.506Z,14.88
2022-08-20T03:11:56.986Z,14.93
2022-08-20T03:14:25.647Z,15.07
2022-08-20T03:16:55.427Z,16.00
2022-08-20T03:19:24.105Z,15.27
2022-08-20T03:21:52.865Z,14.32
2022-08-20T03:24:21.275Z,14.68
2022-08-20T03:26:49.783Z,15.75
2022-08-20T03:29:18.184Z,15.00
2022-08-20T03:31:46.661Z,13.20
2022-08-20T03:34:16.470Z,13.98
2022-08-20T03:36:44.906Z,13.75
2022-08-20T03:39:13.413Z,16.05
2022-08-20T03:41:42.000Z,15.52
2022-08-20T03:44:10.400Z,14.90
2022-08-20T03:46:40.085Z,15.43
2022-08-20T03:49:08.470Z,15.68
2022-08-20T03:51:57.285Z,15.23
2022-08-20T03:54:31.608Z,15.25
2022-08-20T03:57:00.559Z,16.65
2022-08-20T03:59:28.949Z,15.00
2022-08-20T04:01:57.537Z,16.55
2022-08-20T04:04:25.957Z,16.00
2022-08-20T04:06:55.908Z,17.30
2022-08-20T04:09:24.354Z,17.80
2022-08-20T04:12:00.227Z,17.85
2022-08-20T04:14:29.317Z,17.30
2022-08-20T04:16:58.581Z,16.35
2022-08-20T04:19:30.129Z,17.08
2022-08-20T04:22:02.275Z,18.75
2022-08-20T04:24:31.971Z,18.65
2022-08-20T04:27:02.576Z,19.70
2022-08-20T04:29:32.556Z,18.75
2022-08-20T04:32:02.651Z,18.65
2022-08-20T04:34:32.162Z,17.80
2022-08-20T04:37:01.947Z,19.55
2022-08-20T04:39:30.357Z,17.83
2022-08-20T04:41:57.804Z,17.48
2022-08-20T04:44:26.225Z,17.42
2022-08-20T04:46:54.663Z,17.15
2022-08-20T04:49:26.473Z,17.77
2022-08-20T04:51:55.692Z,17.85
2022-08-20T04:54:25.472Z,16.27
2022-08-20T04:56:53.932Z,16.38
2022-08-20T04:59:22.378Z,16.02
2022-08-20T05:01:50.820Z,14.73
2022-08-20T05:04:19.309Z,18.70
2022-08-20T05:06:48.365Z,16.90
2022-08-20T05:09:16.902Z,17.25
2022-08-20T05:11:46.679Z,17.58
2022-08-20T05:14:15.434Z,16.60
2022-08-20T05:16:43.918Z,17.08
2022-08-20T05:19:14.319Z,15.85
2022-08-20T05:21:43.060Z,16.65
2022-08-20T05:24:12.220Z,15.88
2022-08-20T05:26:40.643Z,15.77
2022-08-20T05:29:10.367Z,18.02
2022-08-20T05:31:39.384Z,16.42
2022-08-20T05:34:10.358Z,17.67
2022-08-20T05:36:39.730Z,17.60
2022-08-20T05:39:08.875Z,17.65
2022-08-20T05:41:37.804Z,17.25
2022-08-20T05:44:09.954Z,16.85
2022-08-20T05:46:40.958Z,17.58
2022-08-20T05:49:09.530Z,18.50
2022-08-20T05:51:38.087Z,18.55
2022-08-20T05:54:07.016Z,19.83
2022-08-20T05:56:35.992Z,18.10
2022-08-20T05:59:05.005Z,18.15
2022-08-20T06:01:34.155Z,18.52
2022-08-20T06:04:21.871Z,16.70
2022-08-20T06:06:51.186Z,19.52
2022-08-20T06:09:31.001Z,19.27
2022-08-20T06:12:00.608Z,19.05
2022-08-20T06:14:29.212Z,20.13
2022-08-20T06:16:59.136Z,20.35
2022-08-20T06:19:32.228Z,19.52
2022-08-20T06:22:01.893Z,19.83
2022-08-20T06:24:30.672Z,20.55
2022-08-20T06:26:59.516Z,22.67
2022-08-20T06:29:28.718Z,21.48
2022-08-20T06:31:57.360Z,20.05
2022-08-20T06:34:28.426Z,18.40
2022-08-20T06:37:00.954Z,19.10
2022-08-20T06:39:30.014Z,21.80
2022-08-20T06:41:59.582Z,20.85
2022-08-20T06:44:28.510Z,21.35
2022-08-20T06:46:56.989Z,21.05
2022-08-20T06:49:25.415Z,21.25
2022-08-20T06:51:56.147Z,20.55
2022-08-20T06:54:29.441Z,22.52
2022-08-20T06:56:58.191Z,23.83
2022-08-20T06:59:26.561Z,24.00
2022-08-20T07:01:56.705Z,25.30
2022-08-20T07:04:25.876Z,25.55
2022-08-20T07:06:54.421Z,25.55
2022-08-20T07:09:23.450Z,25.13
2022-08-20T07:11:53.389Z,24.13
2022-08-20T07:14:22.320Z,24.10
2022-08-20T07:16:50.753Z,24.10
2022-08-20T07:19:19.132Z,23.92
2022-08-20T07:24:13.917Z,22.15
2022-08-20T07:26:42.339Z,23.73
2022-08-20T07:29:10.746Z,20.67
2022-08-20T07:31:56.897Z,18.95
2022-08-20T07:34:25.331Z,19.92
2022-08-20T07:36:53.720Z,20.17
2022-08-20T07:39:24.761Z,19.50
2022-08-20T07:42:03.241Z,19.08
2022-08-20T07:44:31.709Z,18.63
2022-08-20T07:47:00.341Z,18.60
2022-08-20T07:49:28.780Z,18.55
2022-08-20T07:51:57.255Z,17.50
2022-08-20T07:54:28.058Z,20.63
2022-08-20T07:57:02.574Z,27.40
2022-08-20T07:59:31.375Z,28.35
2022-08-20T08:01:59.814Z,29.10
2022-08-20T08:04:28.222Z,30.63
2022-08-20T08:07:00.118Z,32.15
2022-08-20T08:09:30.420Z,33.53
2022-08-20T08:12:00.672Z,33.25
2022-08-20T08:14:29.781Z,33.85
2022-08-20T08:16:59.050Z,33.92
2022-08-20T08:19:28.618Z,33.47
2022-08-20T08:21:58.709Z,30.75
2022-08-20T08:24:28.552Z,29.55
2022-08-20T08:26:58.618Z,30.35
2022-08-20T08:29:27.318Z,28.27
2022-08-20T08:31:55.771Z,28.48
2022-08-20T08:34:25.316Z,26.45
2022-08-20T08:36:54.264Z,25.23
2022-08-20T08:39:24.494Z,28.73
2022-08-20T08:42:03.505Z,28.55
2022-08-20T08:44:36.484Z,28.10
2022-08-20T08:47:18.195Z,25.58
2022-08-20T08:49:47.401Z,27.13
2022-08-20T08:52:19.794Z,25.08
2022-08-20T08:54:49.923Z,28.40
2022-08-20T08:57:19.984Z,25.98
2022-08-20T09:00:03.599Z,24.20
2022-08-20T09:02:34.306Z,24.95
2022-08-20T09:05:04.339Z,23.25
2022-08-20T09:07:34.793Z,23.33
2022-08-20T09:11:21.384Z,22.63
2022-08-20T09:13:49.839Z,21.05
2022-08-20T09:16:18.234Z,21.10
2022-08-20T09:18:46.703Z,21.08
2022-08-20T09:21:15.502Z,21.55
2022-08-20T09:23:43.888Z,20.15
2022-08-20T09:26:13.615Z,19.75
2022-08-20T09:28:43.526Z,19.23
2022-08-20T09:31:12.288Z,17.40
2022-08-20T09:33:40.722Z,17.25
2022-08-20T09:36:31.789Z,17.85
2022-08-20T09:38:58.377Z,17.67
2022-08-20T09:41:26.789Z,16.45
2022-08-20T09:43:56.694Z,17.70
2022-08-20T09:46:27.181Z,18.77
2022-08-20T09:48:56.004Z,18.83
2022-08-20T09:51:24.741Z,18.70
2022-08-20T09:53:53.210Z,18.73
2022-08-20T09:56:21.695Z,18.63
2022-08-20T09:58:51.318Z,19.05
2022-08-20T10:01:21.899Z,17.80
2022-08-20T10:03:51.131Z,18.90
2022-08-20T10:06:20.700Z,18.15
2022-08-20T10:08:49.497Z,18.92
2022-08-20T10:11:18.366Z,18.20
2022-08-20T10:13:46.929Z,18.20
2022-08-20T10:16:15.467Z,17.00
2022-08-20T10:18:45.327Z,17.60
2022-08-20T10:21:14.495Z,16.05
2022-08-20T10:23:42.919Z,18.17
2022-08-20T10:26:11.673Z,18.23
2022-08-20T10:28:40.286Z,17.27
2022-08-20T10:31:09.130Z,17.58
2022-08-20T10:33:37.794Z,16.33
2022-08-20T10:36:10.887Z,17.67
2022-08-20T10:38:39.321Z,16.50
2022-08-20T10:41:08.149Z,16.95
2022-08-20T10:43:36.750Z,16.40
2022-08-20T10:46:05.367Z,16.75
2022-08-20T10:48:33.814Z,18.15
2022-08-20T10:51:02.516Z,16.85
2022-08-20T10:53:32.440Z,16.63
2022-08-20T10:56:01.013Z,17.17
2022-08-20T10:58:37.451Z,16.30
2022-08-20T11:01:07.975Z,17.50
2022-08-20T11:03:36.445Z,16.15
2022-08-20T11:06:05.152Z,16.00
2022-08-20T11:08:36.248Z,14.57
2022-08-20T11:11:05.617Z,15.98
2022-08-20T11:13:34.202Z,15.15
2022-08-20T11:16:03.030Z,18.23
2022-08-20T11:18:32.004Z,19.08
2022-08-20T11:21:01.412Z,18.08
2022-08-20T11:23:30.516Z,18.67
2022-08-20T11:26:00.471Z,18.42
2022-08-20T11:28:32.285Z,16.63
2022-08-20T11:31:01.334Z,17.00
2022-08-20T11:33:29.785Z,16.70
2022-08-20T11:35:58.206Z,17.55
2022-08-20T11:38:27.004Z,18.52
2022-08-20T11:40:55.488Z,18.50
2022-08-20T11:43:25.293Z,17.48
2022-08-20T11:45:55.943Z,18.92
2022-08-20T11:48:24.435Z,17.02
2022-08-20T11:50:52.888Z,15.23
2022-08-20T11:53:21.567Z,18.33
2022-08-20T11:55:51.115Z,18.45
2022-08-20T11:58:19.941Z,19.02
2022-08-20T12:00:49.723Z,18.45
2022-08-20T12:03:18.195Z,16.83
2022-08-20T12:05:50.019Z,15.90
2022-08-20T12:08:25.511Z,15.25
2022-08-20T12:10:56.189Z,15.63
2022-08-20T12:13:47.174Z,16.92
2022-08-20T12:16:14.408Z,18.85
2022-08-20T12:18:43.035Z,18.40
2022-08-20T12:21:11.537Z,16.08
2022-08-20T12:23:39.944Z,15.40
2022-08-20T12:26:08.423Z,13.38
2022-08-20T12:28:36.826Z,15.60
2022-08-20T12:31:05.330Z,14.15
2022-08-20T12:33:35.120Z,15.27
2022-08-20T12:36:03.557Z,13.93
2022-08-20T12:38:31.962Z,14.63
2022-08-20T12:41:00.795Z,12.93
2022-08-20T12:43:29.202Z,13.43
2022-08-20T12:45:57.682Z,12.95
2022-08-20T12:48:26.251Z,12.70
2022-08-20T12:50:56.175Z,12.90
2022-08-20T12:53:24.569Z,12.00
2022-08-20T12:55:52.985Z,11.77
2022-08-20T12:58:21.406Z,13.63
2022-08-20T13:00:50.830Z,11.90
2022-08-20T13:03:19.792Z,12.95
2022-08-20T13:05:48.241Z,12.07
2022-08-20T13:08:19.398Z,10.10
2022-08-20T13:10:48.356Z,10.57
2022-08-20T13:13:20.567Z,9.10
2022-08-20T13:15:50.074Z,8.95
2022-08-20T13:18:18.658Z,7.75
2022-08-20T13:20:47.668Z,7.95
2022-08-20T13:23:16.036Z,6.97
2022-08-20T13:25:45.795Z,6.93
2022-08-20T13:28:14.214Z,6.43
2022-08-20T13:30:42.623Z,6.80
2022-08-20T13:33:11.402Z,7.15
2022-08-20T13:35:39.808Z,7.00
2022-08-20T13:38:08.294Z,7.00
2022-08-20T13:40:37.033Z,5.93
2022-08-20T13:43:07.626Z,5.97
2022-08-20T13:45:41.065Z,5.45
2022-08-20T13:48:14.549Z,4.72
2022-08-20T13:50:46.898Z,5.80
2022-08-20T13:53:15.893Z,5.10
2022-08-20T13:55:44.329Z,4.93
2022-08-20T13:58:14.071Z,4.78
2022-08-20T14:00:42.560Z,6.70
2022-08-20T14:03:10.991Z,6.63
2022-08-20T14:05:39.881Z,5.70
2022-08-20T14:08:10.349Z,4.95
2022-08-20T14:10:39.140Z,4.03
2022-08-20T14:13:15.154Z,4.35
2022-08-20T14:15:45.744Z,4.75
2022-08-20T14:18:14.490Z,4.43
2022-08-20T14:20:45.365Z,4.38
2022-08-20T14:23:14.550Z,4.32
2022-08-20T14:25:43.004Z,4.53
2022-08-20T14:28:12.486Z,4.38
2022-08-20T14:30:41.040Z,3.05
2022-08-20T14:33:11.130Z,3.90
2022-08-20T14:35:40.146Z,3.85
2022-08-20T14:38:08.932Z,3.78
2022-08-20T14:40:37.888Z,4.00
2022-08-20T14:43:06.324Z,4.05
2022-08-20T14:45:34.732Z,3.50
2022-08-20T14:48:03.188Z,3.72
2022-08-20T14:50:34.070Z,3.58
2022-08-20T14:53:02.906Z,3.38
2022-08-20T14:55:32.328Z,3.08
2022-08-20T14:58:00.792Z,3.50
2022-08-20T15:00:30.783Z,3.88
2022-08-20T15:02:59.459Z,3.63
2022-08-20T15:05:28.048Z,3.92
2022-08-20T15:07:59.711Z,3.70
2022-08-20T15:10:29.853Z,3.53
2022-08-20T15:12:58.629Z,2.72
2022-08-20T15:15:27.497Z,3.63
2022-08-20T15:17:56.780Z,3.50
2022-08-20T15:20:26.121Z,3.10
2022-08-20T15:22:54.634Z,3.40
2022-08-20T15:25:25.756Z,2.95
2022-08-20T15:27:58.392Z,3.22
2022-08-20T15:30:31.013Z,2.92
2022-08-20T15:32:59.718Z,2.97
2022-08-20T15:35:29.114Z,2.90
2022-08-20T15:37:58.448Z,2.97
2022-08-20T15:40:30.205Z,3.63
2022-08-20T15:42:59.057Z,3.60
2022-08-20T15:45:27.866Z,3.40
2022-08-20T15:47:57.651Z,3.17
2022-08-20T15:50:40.072Z,3.13
2022-08-20T15:56:01.458Z,2.92
2022-08-20T15:58:34.040Z,2.90
2022-08-20T16:01:23.725Z,3.60
2022-08-20T16:04:02.470Z,3.30
2022-08-20T16:06:32.889Z,2.80
2022-08-20T16:09:08.993Z,2.72
2022-08-20T16:11:44.549Z,2.80
2022-08-20T16:14:16.669Z,2.70
2022-08-20T16:19:23.200Z,2.63
2022-08-20T16:21:52.410Z,2.90
2022-08-20T16:24:21.560Z,3.00
2022-08-20T16:27:01.535Z,2.72
2022-08-20T16:29:37.581Z,2.60
2022-08-20T16:32:08.552Z,2.90
2022-08-20T16:34:41.943Z,2.80
2022-08-20T16:37:18.571Z,3.00
2022-08-20T16:39:50.823Z,2.85
2022-08-20T16:42:23.297Z,2.65
2022-08-20T16:44:53.209Z,2.60
2022-08-20T16:47:23.139Z,2.80
2022-08-20T16:49:58.860Z,2.67
2022-08-20T16:52:27.704Z,2.80
2022-08-20T16:54:56.113Z,2.85
2022-08-20T16:57:24.986Z,3.13
2022-08-20T16:59:57.517Z,3.35
2022-08-20T17:02:26.536Z,3.00
2022-08-20T17:04:59.253Z,3.53
2022-08-20T17:07:31.093Z,3.00
2022-08-20T17:10:10.332Z,2.97
2022-08-20T17:12:39.187Z,3.83
2022-08-20T17:15:08.133Z,3.65
2022-08-20T17:17:37.593Z,4.00
2022-08-20T17:20:19.846Z,3.83
2022-08-20T17:22:50.461Z,3.58
2022-08-20T17:25:21.829Z,4.07
2022-08-20T17:27:50.337Z,3.80
2022-08-20T17:30:22.683Z,3.53
2022-08-20T17:32:58.195Z,3.83
2022-08-20T17:35:33.327Z,3.75
2022-08-20T17:38:02.621Z,4.38
2022-08-20T17:40:34.254Z,3.80
2022-08-20T17:43:03.675Z,3.47
2022-08-20T17:45:33.805Z,4.72
2022-08-20T17:48:02.272Z,4.25
2022-08-20T17:50:34.982Z,3.63
2022-08-20T17:53:07.884Z,4.18
2022-08-20T17:55:37.516Z,3.47
2022-08-20T17:58:08.368Z,3.85
2022-08-20T18:00:36.767Z,3.70
2022-08-20T18:03:11.435Z,3.60
2022-08-20T18:05:41.586Z,4.38
2022-08-20T18:08:16.877Z,3.95
2022-08-20T18:10:53.971Z,4.30
2022-08-20T18:13:26.402Z,4.60
2022-08-20T18:15:56.681Z,4.25
2022-08-20T18:18:30.986Z,4.57
2022-08-20T18:21:15.450Z,4.03
2022-08-20T18:23:47.484Z,4.53
2022-08-20T18:26:18.612Z,3.90
2022-08-20T18:28:48.784Z,4.03
2022-08-20T18:31:27.150Z,4.15
2022-08-20T18:33:55.758Z,3.97
2022-08-20T18:36:28.349Z,4.00
2022-08-20T18:39:03.981Z,7.50
2022-08-20T18:41:33.376Z,5.32
2022-08-20T18:47:23.807Z,5.53
2022-08-20T18:50:01.323Z,4.43
2022-08-20T18:52:31.153Z,3.97
2022-08-20T18:55:01.286Z,3.97
2022-08-20T18:57:41.152Z,3.95
2022-08-20T19:00:12.544Z,3.78
2022-08-20T19:02:54.585Z,4.45
2022-08-20T19:05:26.601Z,4.15
2022-08-20T19:07:55.914Z,4.45
2022-08-20T19:10:35.468Z,4.32
2022-08-20T19:13:21.577Z,3.97
2022-08-20T19:15:51.388Z,4.25
2022-08-20T19:18:24.969Z,4.47
2022-08-20T19:20:56.541Z,3.80
2022-08-20T19:23:26.146Z,3.75
2022-08-20T19:25:56.719Z,4.68
2022-08-20T19:28:28.189Z,3.58
2022-08-20T19:30:57.074Z,3.78
2022-08-20T19:33:31.002Z,4.15
2022-08-20T19:36:13.256Z,3.80
2022-08-20T19:38:45.989Z,3.50
2022-08-20T19:41:29.243Z,3.60
2022-08-20T19:44:00.705Z,3.50
2022-08-20T19:46:31.306Z,3.45
2022-08-20T19:49:10.641Z,3.85
2022-08-20T19:51:45.854Z,3.60
2022-08-20T19:54:21.244Z,3.17
2022-08-20T19:56:49.782Z,3.13
2022-08-20T19:59:20.773Z,3.70
2022-08-20T20:01:53.460Z,3.72
2022-08-20T20:04:26.832Z,3.28
2022-08-20T20:06:58.394Z,3.67
2022-08-20T20:09:27.997Z,3.65
2022-08-20T20:11:57.276Z,3.55
2022-08-20T20:14:28.264Z,3.47
2022-08-20T20:16:57.587Z,3.63
2022-08-20T20:19:28.301Z,3.70
2022-08-20T20:22:04.944Z,3.75
2022-08-20T20:24:42.129Z,4.07
2022-08-20T20:27:13.558Z,3.78
2022-08-20T20:29:43.761Z,4.10
2022-08-20T20:32:18.510Z,3.35
2022-08-20T20:34:56.224Z,3.75
2022-08-20T20:37:48.736Z,3.13
2022-08-20T20:40:23.396Z,3.45
2022-08-20T20:42:59.279Z,3.45
2022-08-20T20:45:34.190Z,3.35
2022-08-20T20:48:03.832Z,3.38
2022-08-20T20:50:35.366Z,3.20
2022-08-20T20:53:03.932Z,3.60
2022-08-20T20:55:34.232Z,3.22
2022-08-20T20:58:02.933Z,4.05
2022-08-20T21:00:32.700Z,4.10
2022-08-20T21:03:03.890Z,4.47
2022-08-20T21:05:34.514Z,4.50
2022-08-20T21:08:05.340Z,4.15
2022-08-20T21:10:34.926Z,5.10
2022-08-20T21:13:04.331Z,5.22
2022-08-20T21:15:33.743Z,6.03
2022-08-20T21:18:03.683Z,6.18
2022-08-20T21:20:32.608Z,6.55
2022-08-20T21:23:02.556Z,6.28
2022-08-20T21:25:31.789Z,6.28
2022-08-20T21:28:00.494Z,6.10
2022-08-20T21:30:29.140Z,5.88
2022-08-20T21:32:57.963Z,5.78
2022-08-20T21:35:26.574Z,6.28
2022-08-20T21:37:55.249Z,5.57
2022-08-20T21:40:28.241Z,4.97
2022-08-20T21:42:57.498Z,5.82
2022-08-20T21:45:28.484Z,5.43
2022-08-20T21:47:57.210Z,5.22
2022-08-20T21:50:26.086Z,5.57
2022-08-20T21:52:59.199Z,5.13
2022-08-20T21:55:30.222Z,5.57
2022-08-20T21:57:59.376Z,5.07
2022-08-20T22:00:46.577Z,5.53
2022-08-20T22:03:15.223Z,5.47
2022-08-20T22:05:43.688Z,5.07
2022-08-20T22:08:12.116Z,6.38
2022-08-20T22:10:41.937Z,6.10
2022-08-20T22:13:10.410Z,6.07
2022-08-20T22:15:39.865Z,5.72
2022-08-20T22:18:08.574Z,5.65
2022-08-20T22:20:37.046Z,5.00
2022-08-20T22:23:06.359Z,5.60
2022-08-20T22:25:35.409Z,5.32
2022-08-20T22:28:05.334Z,5.00
2022-08-20T22:30:33.793Z,4.88
2022-08-20T22:33:03.548Z,5.03
2022-08-20T22:35:32.337Z,4.65
2022-08-20T22:38:00.724Z,4.68
2022-08-20T22:40:29.247Z,5.32
2022-08-20T22:42:57.759Z,4.45
2022-08-20T22:45:27.614Z,4.53
2022-08-20T22:47:56.170Z,4.00
2022-08-20T22:50:25.250Z,4.07
2022-08-20T22:52:54.195Z,4.13
2022-08-20T22:55:22.740Z,4.30
2022-08-20T22:57:51.116Z,4.15
2022-08-20T23:00:20.486Z,4.75
2022-08-20T23:02:52.536Z,5.00
2022-08-20T23:05:22.993Z,3.78
2022-08-20T23:07:54.161Z,4.30
2022-08-20T23:10:23.153Z,4.40
2022-08-20T23:12:51.595Z,4.00
2022-08-20T23:15:19.995Z,4.25
2022-08-20T23:17:49.870Z,4.25
2022-08-20T23:20:19.126Z,4.25
2022-08-20T23:22:47.534Z,4.57
2022-08-20T23:25:16.013Z,4.15
2022-08-20T23:27:46.510Z,4.43
2022-08-20T23:30:15.351Z,4.47
2022-08-20T23:32:43.797Z,4.82
2022-08-20T23:35:13.645Z,5.05
2022-08-20T23:37:44.604Z,4.88
2022-08-20T23:40:14.207Z,5.63
2022-08-20T23:42:42.807Z,4.93
2022-08-20T23:45:11.829Z,4.75
2022-08-20T23:47:40.440Z,5.50
2022-08-20T23:50:10.348Z,5.40
2022-08-20T23:52:40.244Z,5.05
2022-08-20T23:55:08.986Z,5.30
2022-08-20T23:57:37.752Z,5.30
